This is the latest recevied weather packets stored in our database for station/object KO4RJX-10. If no packets are shown the sender has not sent any weather packets the latest 10 day(s).
| Time | Temp. | Humidity | Pressure | Rain* | Wind** | Luminosity | Snow |
|---|---|---|---|---|---|---|---|
| 1777284183 | 10.56° C | 80% | 1014.2 hPa | 0 mm | - | - | - |
| 1777283783 | 10.56° C | 80% | 1013.9 hPa | 0 mm | - | - | - |
| 1777282983 | 10.56° C | 79% | 1013.9 hPa | 0 mm | - | - | - |
| 1777281783 | 10.56° C | 80% | 1013.9 hPa | 0 mm | - | - | - |
| 1777279383 | 11.11° C | 80% | 1013.9 hPa | 0 mm | - | - | - |
| 1777278583 | 11.11° C | 79% | 1013.9 hPa | 0 mm | - | - | - |
| 1777277783 | 11.11° C | 80% | 1013.9 hPa | 0 mm | - | - | - |
| 1777276583 | 11.11° C | 80% | 1013.9 hPa | 0 mm | - | - | - |
| 1777270583 | 11.11° C | 80% | 1013.5 hPa | 0 mm | - | - | - |
| 1777267783 | 11.11° C | 78% | 1013.5 hPa | 0 mm | - | - | - |
| 1777267383 | 11.11° C | 78% | 1013.9 hPa | 0 mm | - | - | - |
| 1777264183 | 11.11° C | 76% | 1013.5 hPa | 0 mm | - | - | - |
| 1777262584 | 11.67° C | 74% | 1013.5 hPa | 0 mm | - | - | - |
| 1777261783 | 11.67° C | 74% | 1013.5 hPa | 4.83 mm | - | - | - |
| 1777254983 | 12.22° C | 75% | 1012.5 hPa | 4.83 mm | - | - | - |
| 1777253383 | 12.22° C | 74% | 1012.2 hPa | 4.83 mm | - | - | - |
| 1777238983 | 14.44° C | 74% | 1009.5 hPa | 4.83 mm | - | - | - |
| 1777233383 | 13.89° C | 79% | 1008.5 hPa | 4.83 mm | - | - | - |
| 1777232583 | 14.44° C | 78% | 1008.8 hPa | 4.83 mm | - | - | - |
| 1777232183 | 14.44° C | 77% | 1008.5 hPa | 4.83 mm | - | - | - |
| 1777231517 | 14.44° C | 75% | 1008.5 hPa | 4.83 mm | - | - | - |
| 1777231118 | 14.44° C | 78% | 1008.5 hPa | 4.83 mm | - | - | - |
| 1777229784 | 13.33° C | 85% | 1008.5 hPa | 4.83 mm | - | - | - |
| 1777224583 | 13.33° C | 87% | 1008.5 hPa | 4.83 mm | - | - | - |
| 1777223783 | 13.89° C | 84% | 1008.5 hPa | 4.83 mm | - | - | - |
* Rain since midnight (hover to see other rain measurements)
** Current wind speed in m/s (hover to see current wind gust speed)